sensor_id;sensor_type;location;lat;lon;timestamp;P1;durP1;ratioP1;P2;durP2;ratioP2
9294;SDS011;4686;44.496;11.324;2023-07-13T00:01:14;19.60;;;11.03;;
9294;SDS011;4686;44.496;11.324;2023-07-13T00:03:42;24.60;;;11.23;;
9294;SDS011;4686;44.496;11.324;2023-07-13T00:06:09;19.93;;;10.77;;
9294;SDS011;4686;44.496;11.324;2023-07-13T00:08:36;29.53;;;10.97;;
9294;SDS011;4686;44.496;11.324;2023-07-13T00:11:05;19.13;;;11.03;;
9294;SDS011;4686;44.496;11.324;2023-07-13T00:13:33;22.30;;;11.93;;
9294;SDS011;4686;44.496;11.324;2023-07-13T00:16:00;21.50;;;10.20;;
9294;SDS011;4686;44.496;11.324;2023-07-13T00:18:27;17.97;;;10.90;;
9294;SDS011;4686;44.496;11.324;2023-07-13T00:20:55;18.53;;;10.70;;
9294;SDS011;4686;44.496;11.324;2023-07-13T00:23:29;21.73;;;10.70;;
9294;SDS011;4686;44.496;11.324;2023-07-13T00:25:58;27.70;;;11.57;;
9294;SDS011;4686;44.496;11.324;2023-07-13T00:28:27;25.70;;;11.57;;
9294;SDS011;4686;44.496;11.324;2023-07-13T00:30:54;29.50;;;11.60;;
9294;SDS011;4686;44.496;11.324;2023-07-13T00:33:21;18.83;;;10.87;;
9294;SDS011;4686;44.496;11.324;2023-07-13T00:35:49;23.50;;;11.20;;
9294;SDS011;4686;44.496;11.324;2023-07-13T00:38:16;22.30;;;11.77;;
9294;SDS011;4686;44.496;11.324;2023-07-13T00:40:43;17.83;;;11.30;;
9294;SDS011;4686;44.496;11.324;2023-07-13T00:43:12;20.63;;;11.47;;
9294;SDS011;4686;44.496;11.324;2023-07-13T00:48:29;18.83;;;10.70;;
9294;SDS011;4686;44.496;11.324;2023-07-13T00:50:57;26.50;;;10.87;;
9294;SDS011;4686;44.496;11.324;2023-07-13T00:53:26;17.20;;;12.17;;
9294;SDS011;4686;44.496;11.324;2023-07-13T00:55:54;16.30;;;11.33;;
9294;SDS011;4686;44.496;11.324;2023-07-13T00:58:22;21.20;;;11.43;;
9294;SDS011;4686;44.496;11.324;2023-07-13T01:00:50;24.10;;;12.03;;
9294;SDS011;4686;44.496;11.324;2023-07-13T01:03:18;21.10;;;11.50;;
9294;SDS011;4686;44.496;11.324;2023-07-13T01:05:47;15.23;;;11.43;;
9294;SDS011;4686;44.496;11.324;2023-07-13T01:08:15;28.20;;;10.70;;
9294;SDS011;4686;44.496;11.324;2023-07-13T01:10:50;17.10;;;10.20;;
9294;SDS011;4686;44.496;11.324;2023-07-13T01:13:17;25.97;;;12.53;;
9294;SDS011;4686;44.496;11.324;2023-07-13T01:15:46;20.90;;;12.03;;
9294;SDS011;4686;44.496;11.324;2023-07-13T01:18:15;20.57;;;12.53;;
9294;SDS011;4686;44.496;11.324;2023-07-13T01:20:49;23.10;;;12.97;;
9294;SDS011;4686;44.496;11.324;2023-07-13T01:23:17;32.10;;;12.90;;
9294;SDS011;4686;44.496;11.324;2023-07-13T01:25:45;26.23;;;14.00;;
9294;SDS011;4686;44.496;11.324;2023-07-13T01:28:13;19.37;;;12.57;;
9294;SDS011;4686;44.496;11.324;2023-07-13T01:30:42;20.13;;;12.40;;
9294;SDS011;4686;44.496;11.324;2023-07-13T01:33:11;25.10;;;17.30;;
9294;SDS011;4686;44.496;11.324;2023-07-13T01:35:38;24.10;;;14.27;;
9294;SDS011;4686;44.496;11.324;2023-07-13T01:38:07;19.67;;;12.13;;
9294;SDS011;4686;44.496;11.324;2023-07-13T01:40:34;24.30;;;12.20;;
9294;SDS011;4686;44.496;11.324;2023-07-13T01:43:02;18.17;;;11.20;;
9294;SDS011;4686;44.496;11.324;2023-07-13T01:45:29;19.10;;;10.10;;
9294;SDS011;4686;44.496;11.324;2023-07-13T01:47:56;18.93;;;9.90;;
9294;SDS011;4686;44.496;11.324;2023-07-13T01:50:24;23.80;;;9.67;;
9294;SDS011;4686;44.496;11.324;2023-07-13T01:52:52;15.33;;;9.23;;
9294;SDS011;4686;44.496;11.324;2023-07-13T01:55:21;14.60;;;8.90;;
9294;SDS011;4686;44.496;11.324;2023-07-13T01:57:48;13.50;;;8.80;;
9294;SDS011;4686;44.496;11.324;2023-07-13T02:00:15;18.80;;;9.17;;
9294;SDS011;4686;44.496;11.324;2023-07-13T02:02:43;21.80;;;9.50;;
9294;SDS011;4686;44.496;11.324;2023-07-13T02:05:10;15.60;;;9.10;;
9294;SDS011;4686;44.496;11.324;2023-07-13T02:07:38;18.20;;;10.60;;
9294;SDS011;4686;44.496;11.324;2023-07-13T02:10:05;18.43;;;8.90;;
9294;SDS011;4686;44.496;11.324;2023-07-13T02:12:35;12.17;;;8.97;;
9294;SDS011;4686;44.496;11.324;2023-07-13T02:15:03;24.40;;;10.40;;
9294;SDS011;4686;44.496;11.324;2023-07-13T02:17:30;16.57;;;10.53;;
9294;SDS011;4686;44.496;11.324;2023-07-13T02:19:57;19.53;;;9.90;;
9294;SDS011;4686;44.496;11.324;2023-07-13T02:22:25;15.50;;;8.30;;
9294;SDS011;4686;44.496;11.324;2023-07-13T02:24:52;17.23;;;9.20;;
9294;SDS011;4686;44.496;11.324;2023-07-13T02:27:19;19.77;;;8.77;;
9294;SDS011;4686;44.496;11.324;2023-07-13T02:29:48;17.43;;;7.43;;
9294;SDS011;4686;44.496;11.324;2023-07-13T02:32:16;11.43;;;7.83;;
9294;SDS011;4686;44.496;11.324;2023-07-13T02:34:43;9.77;;;7.90;;
9294;SDS011;4686;44.496;11.324;2023-07-13T02:37:11;11.17;;;7.10;;
9294;SDS011;4686;44.496;11.324;2023-07-13T02:39:38;10.90;;;7.00;;
9294;SDS011;4686;44.496;11.324;2023-07-13T02:42:06;16.03;;;7.93;;
9294;SDS011;4686;44.496;11.324;2023-07-13T02:44:33;14.73;;;7.20;;
9294;SDS011;4686;44.496;11.324;2023-07-13T02:47:02;12.20;;;7.10;;
9294;SDS011;4686;44.496;11.324;2023-07-13T02:49:29;19.17;;;7.70;;
9294;SDS011;4686;44.496;11.324;2023-07-13T02:51:57;19.67;;;8.07;;
9294;SDS011;4686;44.496;11.324;2023-07-13T02:54:25;16.23;;;8.17;;
9294;SDS011;4686;44.496;11.324;2023-07-13T02:56:52;12.77;;;7.50;;
9294;SDS011;4686;44.496;11.324;2023-07-13T02:59:19;17.73;;;7.27;;
9294;SDS011;4686;44.496;11.324;2023-07-13T03:01:46;17.50;;;7.67;;
9294;SDS011;4686;44.496;11.324;2023-07-13T03:04:15;17.37;;;8.13;;
9294;SDS011;4686;44.496;11.324;2023-07-13T03:06:44;14.30;;;7.63;;
9294;SDS011;4686;44.496;11.324;2023-07-13T03:09:12;14.63;;;6.93;;
9294;SDS011;4686;44.496;11.324;2023-07-13T03:11:39;19.60;;;8.20;;
9294;SDS011;4686;44.496;11.324;2023-07-13T03:14:07;14.97;;;7.83;;
9294;SDS011;4686;44.496;11.324;2023-07-13T03:16:35;24.20;;;9.03;;
9294;SDS011;4686;44.496;11.324;2023-07-13T03:19:02;15.30;;;7.10;;
9294;SDS011;4686;44.496;11.324;2023-07-13T03:21:31;17.43;;;7.40;;
9294;SDS011;4686;44.496;11.324;2023-07-13T03:23:58;11.30;;;7.20;;
9294;SDS011;4686;44.496;11.324;2023-07-13T03:26:26;15.27;;;7.23;;
9294;SDS011;4686;44.496;11.324;2023-07-13T03:28:53;9.43;;;6.80;;
9294;SDS011;4686;44.496;11.324;2023-07-13T03:31:22;11.13;;;7.47;;
9294;SDS011;4686;44.496;11.324;2023-07-13T03:33:50;14.30;;;7.20;;
9294;SDS011;4686;44.496;11.324;2023-07-13T03:36:18;10.03;;;6.53;;
9294;SDS011;4686;44.496;11.324;2023-07-13T03:38:48;17.70;;;7.30;;
9294;SDS011;4686;44.496;11.324;2023-07-13T03:41:16;14.73;;;6.77;;
9294;SDS011;4686;44.496;11.324;2023-07-13T03:43:43;10.50;;;7.00;;
9294;SDS011;4686;44.496;11.324;2023-07-13T03:46:12;12.63;;;6.60;;
9294;SDS011;4686;44.496;11.324;2023-07-13T03:48:40;9.10;;;6.53;;
9294;SDS011;4686;44.496;11.324;2023-07-13T03:51:08;10.50;;;6.47;;
9294;SDS011;4686;44.496;11.324;2023-07-13T03:53:37;13.60;;;7.70;;
9294;SDS011;4686;44.496;11.324;2023-07-13T03:56:06;14.83;;;7.00;;
9294;SDS011;4686;44.496;11.324;2023-07-13T03:58:34;12.20;;;7.47;;
9294;SDS011;4686;44.496;11.324;2023-07-13T04:01:03;12.33;;;7.00;;
9294;SDS011;4686;44.496;11.324;2023-07-13T04:03:30;13.30;;;6.70;;
9294;SDS011;4686;44.496;11.324;2023-07-13T04:05:58;15.53;;;6.93;;
9294;SDS011;4686;44.496;11.324;2023-07-13T04:08:26;9.33;;;7.33;;
9294;SDS011;4686;44.496;11.324;2023-07-13T04:10:53;15.80;;;7.50;;
9294;SDS011;4686;44.496;11.324;2023-07-13T04:13:22;12.50;;;7.40;;
9294;SDS011;4686;44.496;11.324;2023-07-13T04:15:50;18.97;;;7.10;;
9294;SDS011;4686;44.496;11.324;2023-07-13T04:18:17;10.10;;;7.33;;
9294;SDS011;4686;44.496;11.324;2023-07-13T04:20:45;11.37;;;7.23;;
9294;SDS011;4686;44.496;11.324;2023-07-13T04:23:13;11.40;;;7.43;;
9294;SDS011;4686;44.496;11.324;2023-07-13T04:25:43;16.70;;;7.70;;
9294;SDS011;4686;44.496;11.324;2023-07-13T04:28:10;8.90;;;7.73;;
9294;SDS011;4686;44.496;11.324;2023-07-13T04:30:39;13.73;;;8.10;;
9294;SDS011;4686;44.496;11.324;2023-07-13T04:33:06;10.40;;;7.27;;
9294;SDS011;4686;44.496;11.324;2023-07-13T04:35:34;11.20;;;7.40;;
9294;SDS011;4686;44.496;11.324;2023-07-13T04:38:02;9.50;;;7.00;;
9294;SDS011;4686;44.496;11.324;2023-07-13T04:40:29;11.27;;;7.77;;
9294;SDS011;4686;44.496;11.324;2023-07-13T04:42:57;20.67;;;7.67;;
9294;SDS011;4686;44.496;11.324;2023-07-13T04:45:24;13.63;;;7.53;;
9294;SDS011;4686;44.496;11.324;2023-07-13T04:47:53;12.30;;;7.87;;
9294;SDS011;4686;44.496;11.324;2023-07-13T04:50:20;16.97;;;7.90;;
9294;SDS011;4686;44.496;11.324;2023-07-13T04:52:48;15.30;;;6.63;;
9294;SDS011;4686;44.496;11.324;2023-07-13T04:55:15;15.67;;;8.23;;
9294;SDS011;4686;44.496;11.324;2023-07-13T04:57:42;14.93;;;7.77;;
9294;SDS011;4686;44.496;11.324;2023-07-13T05:00:10;14.97;;;6.90;;
9294;SDS011;4686;44.496;11.324;2023-07-13T05:02:38;11.77;;;7.27;;
9294;SDS011;4686;44.496;11.324;2023-07-13T05:05:06;9.83;;;7.27;;
9294;SDS011;4686;44.496;11.324;2023-07-13T05:07:34;12.40;;;7.40;;
9294;SDS011;4686;44.496;11.324;2023-07-13T05:10:01;12.53;;;7.27;;
9294;SDS011;4686;44.496;11.324;2023-07-13T05:12:29;11.63;;;7.60;;
9294;SDS011;4686;44.496;11.324;2023-07-13T05:14:57;14.00;;;6.63;;
9294;SDS011;4686;44.496;11.324;2023-07-13T05:17:24;13.47;;;7.57;;
9294;SDS011;4686;44.496;11.324;2023-07-13T05:19:51;12.43;;;7.60;;
9294;SDS011;4686;44.496;11.324;2023-07-13T05:22:20;12.07;;;7.73;;
9294;SDS011;4686;44.496;11.324;2023-07-13T05:24:47;18.10;;;7.47;;
9294;SDS011;4686;44.496;11.324;2023-07-13T05:27:15;17.63;;;7.87;;
9294;SDS011;4686;44.496;11.324;2023-07-13T05:29:42;12.20;;;7.00;;
9294;SDS011;4686;44.496;11.324;2023-07-13T05:32:09;16.30;;;7.70;;
9294;SDS011;4686;44.496;11.324;2023-07-13T05:34:37;14.80;;;7.80;;
9294;SDS011;4686;44.496;11.324;2023-07-13T05:37:04;11.60;;;8.00;;
9294;SDS011;4686;44.496;11.324;2023-07-13T05:39:33;14.20;;;7.87;;
9294;SDS011;4686;44.496;11.324;2023-07-13T05:42:00;15.93;;;8.57;;
9294;SDS011;4686;44.496;11.324;2023-07-13T05:44:27;10.40;;;8.00;;
9294;SDS011;4686;44.496;11.324;2023-07-13T05:46:54;14.00;;;7.67;;
9294;SDS011;4686;44.496;11.324;2023-07-13T05:49:22;15.33;;;7.90;;
9294;SDS011;4686;44.496;11.324;2023-07-13T05:51:49;13.20;;;7.77;;
9294;SDS011;4686;44.496;11.324;2023-07-13T05:54:16;24.97;;;8.50;;
9294;SDS011;4686;44.496;11.324;2023-07-13T05:56:45;13.80;;;7.37;;
9294;SDS011;4686;44.496;11.324;2023-07-13T05:59:13;12.53;;;8.17;;
9294;SDS011;4686;44.496;11.324;2023-07-13T06:01:40;11.80;;;7.00;;
9294;SDS011;4686;44.496;11.324;2023-07-13T06:04:08;18.37;;;7.93;;
9294;SDS011;4686;44.496;11.324;2023-07-13T06:06:35;16.60;;;7.47;;
9294;SDS011;4686;44.496;11.324;2023-07-13T06:09:02;21.40;;;7.37;;
9294;SDS011;4686;44.496;11.324;2023-07-13T06:11:29;11.47;;;6.93;;
9294;SDS011;4686;44.496;11.324;2023-07-13T06:13:58;15.67;;;6.77;;
9294;SDS011;4686;44.496;11.324;2023-07-13T06:16:25;13.73;;;6.97;;
9294;SDS011;4686;44.496;11.324;2023-07-13T06:18:52;16.43;;;7.60;;
9294;SDS011;4686;44.496;11.324;2023-07-13T06:21:20;13.70;;;7.50;;
9294;SDS011;4686;44.496;11.324;2023-07-13T06:23:49;18.60;;;6.90;;
9294;SDS011;4686;44.496;11.324;2023-07-13T06:26:16;13.80;;;7.73;;
9294;SDS011;4686;44.496;11.324;2023-07-13T06:28:44;14.47;;;6.77;;
9294;SDS011;4686;44.496;11.324;2023-07-13T06:31:14;10.60;;;6.47;;
9294;SDS011;4686;44.496;11.324;2023-07-13T06:33:43;12.50;;;6.87;;
9294;SDS011;4686;44.496;11.324;2023-07-13T06:36:10;24.80;;;7.40;;
9294;SDS011;4686;44.496;11.324;2023-07-13T06:38:38;15.13;;;6.53;;
9294;SDS011;4686;44.496;11.324;2023-07-13T06:41:06;10.70;;;6.23;;
9294;SDS011;4686;44.496;11.324;2023-07-13T06:43:33;10.93;;;5.90;;
9294;SDS011;4686;44.496;11.324;2023-07-13T06:46:00;11.90;;;6.43;;
9294;SDS011;4686;44.496;11.324;2023-07-13T06:48:29;11.73;;;6.23;;
9294;SDS011;4686;44.496;11.324;2023-07-13T06:50:56;12.83;;;6.50;;
9294;SDS011;4686;44.496;11.324;2023-07-13T06:53:24;15.40;;;5.73;;
9294;SDS011;4686;44.496;11.324;2023-07-13T06:55:51;16.07;;;6.77;;
9294;SDS011;4686;44.496;11.324;2023-07-13T06:58:18;14.97;;;5.87;;
9294;SDS011;4686;44.496;11.324;2023-07-13T07:00:46;12.33;;;5.53;;
9294;SDS011;4686;44.496;11.324;2023-07-13T07:03:13;7.80;;;5.60;;
9294;SDS011;4686;44.496;11.324;2023-07-13T07:05:42;23.87;;;6.90;;
9294;SDS011;4686;44.496;11.324;2023-07-13T07:08:09;15.83;;;5.90;;
9294;SDS011;4686;44.496;11.324;2023-07-13T07:10:36;12.20;;;6.20;;
9294;SDS011;4686;44.496;11.324;2023-07-13T07:13:03;21.43;;;5.87;;
9294;SDS011;4686;44.496;11.324;2023-07-13T07:15:31;15.63;;;6.17;;
9294;SDS011;4686;44.496;11.324;2023-07-13T07:17:58;10.30;;;5.53;;
9294;SDS011;4686;44.496;11.324;2023-07-13T07:20:25;15.13;;;5.13;;
9294;SDS011;4686;44.496;11.324;2023-07-13T07:22:54;15.33;;;5.87;;
9294;SDS011;4686;44.496;11.324;2023-07-13T07:25:21;16.97;;;6.30;;
9294;SDS011;4686;44.496;11.324;2023-07-13T07:27:49;18.93;;;6.03;;
9294;SDS011;4686;44.496;11.324;2023-07-13T07:30:16;10.13;;;5.67;;
9294;SDS011;4686;44.496;11.324;2023-07-13T07:32:43;10.10;;;5.20;;
9294;SDS011;4686;44.496;11.324;2023-07-13T07:35:11;18.00;;;5.70;;
9294;SDS011;4686;44.496;11.324;2023-07-13T07:37:40;10.80;;;5.27;;
9294;SDS011;4686;44.496;11.324;2023-07-13T07:40:09;13.17;;;5.60;;
9294;SDS011;4686;44.496;11.324;2023-07-13T07:42:37;11.73;;;4.67;;
9294;SDS011;4686;44.496;11.324;2023-07-13T07:45:04;26.63;;;5.90;;
9294;SDS011;4686;44.496;11.324;2023-07-13T07:47:31;12.00;;;5.43;;
9294;SDS011;4686;44.496;11.324;2023-07-13T07:49:59;16.23;;;5.70;;
9294;SDS011;4686;44.496;11.324;2023-07-13T07:52:26;13.17;;;5.60;;
9294;SDS011;4686;44.496;11.324;2023-07-13T07:54:54;12.10;;;5.87;;
9294;SDS011;4686;44.496;11.324;2023-07-13T07:57:22;9.27;;;5.30;;
9294;SDS011;4686;44.496;11.324;2023-07-13T07:59:50;12.00;;;5.70;;
9294;SDS011;4686;44.496;11.324;2023-07-13T08:02:17;14.03;;;5.70;;
9294;SDS011;4686;44.496;11.324;2023-07-13T08:04:45;14.47;;;5.50;;
9294;SDS011;4686;44.496;11.324;2023-07-13T08:07:12;22.13;;;5.67;;
9294;SDS011;4686;44.496;11.324;2023-07-13T08:09:39;11.97;;;5.60;;
9294;SDS011;4686;44.496;11.324;2023-07-13T08:12:06;14.43;;;5.70;;
9294;SDS011;4686;44.496;11.324;2023-07-13T08:14:35;18.03;;;6.13;;
9294;SDS011;4686;44.496;11.324;2023-07-13T08:17:03;13.20;;;5.93;;
9294;SDS011;4686;44.496;11.324;2023-07-13T08:19:30;11.67;;;5.20;;
9294;SDS011;4686;44.496;11.324;2023-07-13T08:21:58;9.00;;;5.07;;
9294;SDS011;4686;44.496;11.324;2023-07-13T08:24:25;17.40;;;5.80;;
9294;SDS011;4686;44.496;11.324;2023-07-13T08:26:52;17.23;;;6.50;;
9294;SDS011;4686;44.496;11.324;2023-07-13T08:29:20;17.77;;;6.10;;
9294;SDS011;4686;44.496;11.324;2023-07-13T08:31:48;14.83;;;7.10;;
9294;SDS011;4686;44.496;11.324;2023-07-13T08:34:15;13.27;;;5.97;;
9294;SDS011;4686;44.496;11.324;2023-07-13T08:36:43;9.50;;;5.93;;
9294;SDS011;4686;44.496;11.324;2023-07-13T08:39:10;16.90;;;6.03;;
9294;SDS011;4686;44.496;11.324;2023-07-13T08:41:38;14.13;;;5.50;;
9294;SDS011;4686;44.496;11.324;2023-07-13T08:44:06;11.73;;;6.20;;
9294;SDS011;4686;44.496;11.324;2023-07-13T08:46:38;9.80;;;5.20;;
9294;SDS011;4686;44.496;11.324;2023-07-13T08:49:10;12.37;;;5.53;;
9294;SDS011;4686;44.496;11.324;2023-07-13T08:51:40;10.97;;;5.70;;
9294;SDS011;4686;44.496;11.324;2023-07-13T08:54:11;12.23;;;6.37;;
9294;SDS011;4686;44.496;11.324;2023-07-13T08:56:39;12.07;;;5.50;;
9294;SDS011;4686;44.496;11.324;2023-07-13T08:59:09;10.07;;;5.80;;
9294;SDS011;4686;44.496;11.324;2023-07-13T09:01:45;20.47;;;6.53;;
9294;SDS011;4686;44.496;11.324;2023-07-13T09:04:16;12.43;;;5.80;;
9294;SDS011;4686;44.496;11.324;2023-07-13T09:06:47;7.50;;;5.43;;
9294;SDS011;4686;44.496;11.324;2023-07-13T09:09:19;11.73;;;6.57;;
9294;SDS011;4686;44.496;11.324;2023-07-13T09:11:49;9.87;;;5.93;;
9294;SDS011;4686;44.496;11.324;2023-07-13T09:14:41;10.60;;;6.20;;
9294;SDS011;4686;44.496;11.324;2023-07-13T09:17:14;12.43;;;6.87;;
9294;SDS011;4686;44.496;11.324;2023-07-13T09:19:42;13.87;;;6.40;;
9294;SDS011;4686;44.496;11.324;2023-07-13T09:22:10;10.00;;;6.13;;
9294;SDS011;4686;44.496;11.324;2023-07-13T09:24:41;13.67;;;6.60;;
9294;SDS011;4686;44.496;11.324;2023-07-13T09:27:14;11.80;;;6.60;;
9294;SDS011;4686;44.496;11.324;2023-07-13T09:29:45;19.10;;;7.13;;
9294;SDS011;4686;44.496;11.324;2023-07-13T09:32:13;10.50;;;7.23;;
9294;SDS011;4686;44.496;11.324;2023-07-13T09:34:42;10.73;;;7.10;;
9294;SDS011;4686;44.496;11.324;2023-07-13T09:37:16;17.87;;;7.23;;
9294;SDS011;4686;44.496;11.324;2023-07-13T09:39:43;15.83;;;7.30;;
9294;SDS011;4686;44.496;11.324;2023-07-13T09:42:12;21.17;;;8.97;;
9294;SDS011;4686;44.496;11.324;2023-07-13T09:44:49;17.63;;;8.90;;
9294;SDS011;4686;44.496;11.324;2023-07-13T09:47:18;21.67;;;8.50;;
9294;SDS011;4686;44.496;11.324;2023-07-13T09:49:55;13.27;;;7.83;;
9294;SDS011;4686;44.496;11.324;2023-07-13T09:52:23;14.83;;;7.80;;
9294;SDS011;4686;44.496;11.324;2023-07-13T09:54:51;17.30;;;8.80;;
9294;SDS011;4686;44.496;11.324;2023-07-13T09:57:24;21.70;;;8.63;;
9294;SDS011;4686;44.496;11.324;2023-07-13T09:59:52;15.23;;;8.67;;
9294;SDS011;4686;44.496;11.324;2023-07-13T10:02:28;14.57;;;9.17;;
9294;SDS011;4686;44.496;11.324;2023-07-13T10:04:57;14.53;;;9.30;;
9294;SDS011;4686;44.496;11.324;2023-07-13T10:07:25;14.93;;;8.63;;
9294;SDS011;4686;44.496;11.324;2023-07-13T10:09:52;13.00;;;9.33;;
9294;SDS011;4686;44.496;11.324;2023-07-13T10:12:20;16.07;;;8.43;;
9294;SDS011;4686;44.496;11.324;2023-07-13T10:14:49;10.63;;;8.20;;
9294;SDS011;4686;44.496;11.324;2023-07-13T10:17:17;11.27;;;7.10;;
9294;SDS011;4686;44.496;11.324;2023-07-13T10:19:45;10.70;;;6.60;;
9294;SDS011;4686;44.496;11.324;2023-07-13T10:22:19;14.13;;;7.87;;
9294;SDS011;4686;44.496;11.324;2023-07-13T10:24:48;10.80;;;8.10;;
9294;SDS011;4686;44.496;11.324;2023-07-13T10:27:17;18.27;;;8.60;;
9294;SDS011;4686;44.496;11.324;2023-07-13T10:29:46;11.00;;;9.00;;
9294;SDS011;4686;44.496;11.324;2023-07-13T10:32:14;20.50;;;8.70;;
9294;SDS011;4686;44.496;11.324;2023-07-13T10:34:43;15.23;;;8.40;;
9294;SDS011;4686;44.496;11.324;2023-07-13T10:37:14;21.47;;;8.77;;
9294;SDS011;4686;44.496;11.324;2023-07-13T10:39:44;20.43;;;8.80;;
9294;SDS011;4686;44.496;11.324;2023-07-13T10:42:13;12.30;;;8.40;;
9294;SDS011;4686;44.496;11.324;2023-07-13T10:44:42;19.40;;;10.10;;
9294;SDS011;4686;44.496;11.324;2023-07-13T10:47:15;12.57;;;8.90;;
9294;SDS011;4686;44.496;11.324;2023-07-13T10:49:43;25.57;;;9.33;;
9294;SDS011;4686;44.496;11.324;2023-07-13T10:54:54;13.77;;;8.20;;
9294;SDS011;4686;44.496;11.324;2023-07-13T10:57:22;12.53;;;8.40;;
9294;SDS011;4686;44.496;11.324;2023-07-13T10:59:49;17.63;;;7.83;;
9294;SDS011;4686;44.496;11.324;2023-07-13T11:02:36;14.97;;;8.57;;
9294;SDS011;4686;44.496;11.324;2023-07-13T11:05:13;14.83;;;8.80;;
9294;SDS011;4686;44.496;11.324;2023-07-13T11:07:51;13.70;;;8.60;;
9294;SDS011;4686;44.496;11.324;2023-07-13T11:13:02;15.27;;;9.23;;
9294;SDS011;4686;44.496;11.324;2023-07-13T11:15:31;11.90;;;8.30;;
9294;SDS011;4686;44.496;11.324;2023-07-13T11:18:02;14.73;;;8.63;;
9294;SDS011;4686;44.496;11.324;2023-07-13T11:20:33;11.63;;;8.07;;
9294;SDS011;4686;44.496;11.324;2023-07-13T11:23:08;16.13;;;8.20;;
9294;SDS011;4686;44.496;11.324;2023-07-13T11:25:36;20.00;;;8.20;;
9294;SDS011;4686;44.496;11.324;2023-07-13T11:28:06;15.67;;;7.57;;
9294;SDS011;4686;44.496;11.324;2023-07-13T11:30:36;15.33;;;7.73;;
9294;SDS011;4686;44.496;11.324;2023-07-13T11:33:16;20.00;;;8.73;;
9294;SDS011;4686;44.496;11.324;2023-07-13T11:35:49;13.73;;;8.10;;
9294;SDS011;4686;44.496;11.324;2023-07-13T11:38:19;11.93;;;7.97;;
9294;SDS011;4686;44.496;11.324;2023-07-13T11:40:47;10.03;;;7.90;;
9294;SDS011;4686;44.496;11.324;2023-07-13T11:43:16;15.93;;;8.80;;
9294;SDS011;4686;44.496;11.324;2023-07-13T11:45:43;13.60;;;9.07;;
9294;SDS011;4686;44.496;11.324;2023-07-13T11:48:20;22.23;;;9.93;;
9294;SDS011;4686;44.496;11.324;2023-07-13T11:50:57;8.83;;;7.90;;
9294;SDS011;4686;44.496;11.324;2023-07-13T11:53:26;14.57;;;7.97;;
9294;SDS011;4686;44.496;11.324;2023-07-13T11:55:54;13.17;;;8.77;;
9294;SDS011;4686;44.496;11.324;2023-07-13T11:58:23;12.17;;;8.03;;
9294;SDS011;4686;44.496;11.324;2023-07-13T12:00:53;10.23;;;9.00;;
9294;SDS011;4686;44.496;11.324;2023-07-13T12:03:22;13.03;;;7.70;;
9294;SDS011;4686;44.496;11.324;2023-07-13T12:05:55;11.83;;;7.10;;
9294;SDS011;4686;44.496;11.324;2023-07-13T12:08:23;9.50;;;7.73;;
9294;SDS011;4686;44.496;11.324;2023-07-13T12:10:56;11.93;;;8.33;;
9294;SDS011;4686;44.496;11.324;2023-07-13T12:13:25;11.37;;;8.43;;
9294;SDS011;4686;44.496;11.324;2023-07-13T12:15:53;10.57;;;9.50;;
9294;SDS011;4686;44.496;11.324;2023-07-13T12:18:21;11.20;;;7.87;;
9294;SDS011;4686;44.496;11.324;2023-07-13T12:20:49;11.47;;;7.33;;
9294;SDS011;4686;44.496;11.324;2023-07-13T12:23:21;16.33;;;7.97;;
9294;SDS011;4686;44.496;11.324;2023-07-13T12:25:49;13.03;;;7.47;;
9294;SDS011;4686;44.496;11.324;2023-07-13T12:28:20;9.87;;;8.83;;
9294;SDS011;4686;44.496;11.324;2023-07-13T12:30:49;14.10;;;7.20;;
9294;SDS011;4686;44.496;11.324;2023-07-13T12:33:16;13.83;;;7.93;;
9294;SDS011;4686;44.496;11.324;2023-07-13T12:35:44;12.73;;;6.00;;
9294;SDS011;4686;44.496;11.324;2023-07-13T12:38:12;14.60;;;6.40;;
9294;SDS011;4686;44.496;11.324;2023-07-13T12:40:40;14.20;;;6.80;;
9294;SDS011;4686;44.496;11.324;2023-07-13T12:43:10;14.87;;;6.70;;
9294;SDS011;4686;44.496;11.324;2023-07-13T12:45:38;13.40;;;7.63;;
9294;SDS011;4686;44.496;11.324;2023-07-13T12:48:12;12.70;;;7.90;;
9294;SDS011;4686;44.496;11.324;2023-07-13T12:50:41;10.10;;;6.87;;
9294;SDS011;4686;44.496;11.324;2023-07-13T12:53:15;10.63;;;6.10;;
9294;SDS011;4686;44.496;11.324;2023-07-13T12:55:43;16.63;;;7.03;;
9294;SDS011;4686;44.496;11.324;2023-07-13T12:58:13;10.70;;;6.47;;
9294;SDS011;4686;44.496;11.324;2023-07-13T13:00:47;10.53;;;5.93;;
9294;SDS011;4686;44.496;11.324;2023-07-13T13:03:20;18.03;;;6.87;;
9294;SDS011;4686;44.496;11.324;2023-07-13T13:05:48;11.37;;;7.17;;
9294;SDS011;4686;44.496;11.324;2023-07-13T13:08:15;13.83;;;7.50;;
9294;SDS011;4686;44.496;11.324;2023-07-13T13:10:42;11.10;;;7.30;;
9294;SDS011;4686;44.496;11.324;2023-07-13T13:13:10;8.37;;;6.40;;
9294;SDS011;4686;44.496;11.324;2023-07-13T13:15:38;19.63;;;6.37;;
9294;SDS011;4686;44.496;11.324;2023-07-13T13:18:08;9.67;;;6.47;;
9294;SDS011;4686;44.496;11.324;2023-07-13T13:20:43;12.43;;;5.53;;
9294;SDS011;4686;44.496;11.324;2023-07-13T13:23:11;11.37;;;5.50;;
9294;SDS011;4686;44.496;11.324;2023-07-13T13:25:42;10.53;;;5.27;;
9294;SDS011;4686;44.496;11.324;2023-07-13T13:28:13;12.23;;;4.90;;
9294;SDS011;4686;44.496;11.324;2023-07-13T13:30:41;4.67;;;4.27;;
9294;SDS011;4686;44.496;11.324;2023-07-13T13:33:09;7.60;;;4.80;;
9294;SDS011;4686;44.496;11.324;2023-07-13T13:35:37;8.00;;;4.90;;
9294;SDS011;4686;44.496;11.324;2023-07-13T13:38:08;9.17;;;4.73;;
9294;SDS011;4686;44.496;11.324;2023-07-13T13:40:36;8.00;;;4.70;;
9294;SDS011;4686;44.496;11.324;2023-07-13T13:43:04;8.37;;;4.80;;
9294;SDS011;4686;44.496;11.324;2023-07-13T13:45:32;5.93;;;4.40;;
9294;SDS011;4686;44.496;11.324;2023-07-13T13:47:59;9.27;;;5.90;;
9294;SDS011;4686;44.496;11.324;2023-07-13T13:50:27;10.00;;;5.10;;
9294;SDS011;4686;44.496;11.324;2023-07-13T13:52:55;7.77;;;4.60;;
9294;SDS011;4686;44.496;11.324;2023-07-13T13:55:24;4.90;;;4.40;;
9294;SDS011;4686;44.496;11.324;2023-07-13T13:57:51;14.40;;;5.00;;
9294;SDS011;4686;44.496;11.324;2023-07-13T14:00:20;8.70;;;5.23;;
9294;SDS011;4686;44.496;11.324;2023-07-13T14:02:47;9.83;;;5.10;;
9294;SDS011;4686;44.496;11.324;2023-07-13T14:05:18;8.30;;;4.07;;
9294;SDS011;4686;44.496;11.324;2023-07-13T14:07:46;8.87;;;4.20;;
9294;SDS011;4686;44.496;11.324;2023-07-13T14:10:15;10.60;;;4.60;;
9294;SDS011;4686;44.496;11.324;2023-07-13T14:12:45;7.50;;;5.13;;
9294;SDS011;4686;44.496;11.324;2023-07-13T14:15:13;13.33;;;5.17;;
9294;SDS011;4686;44.496;11.324;2023-07-13T14:17:45;12.73;;;4.70;;
9294;SDS011;4686;44.496;11.324;2023-07-13T14:20:14;14.47;;;5.23;;
9294;SDS011;4686;44.496;11.324;2023-07-13T14:22:42;11.73;;;5.27;;
9294;SDS011;4686;44.496;11.324;2023-07-13T14:25:10;9.10;;;5.00;;
9294;SDS011;4686;44.496;11.324;2023-07-13T14:27:37;12.93;;;4.73;;
9294;SDS011;4686;44.496;11.324;2023-07-13T14:30:11;6.13;;;4.63;;
9294;SDS011;4686;44.496;11.324;2023-07-13T14:32:39;8.50;;;4.87;;
9294;SDS011;4686;44.496;11.324;2023-07-13T14:35:07;10.07;;;4.67;;
9294;SDS011;4686;44.496;11.324;2023-07-13T14:37:34;7.87;;;5.23;;
9294;SDS011;4686;44.496;11.324;2023-07-13T14:40:02;6.77;;;5.70;;
9294;SDS011;4686;44.496;11.324;2023-07-13T14:42:32;9.63;;;5.40;;
9294;SDS011;4686;44.496;11.324;2023-07-13T14:44:59;7.70;;;5.93;;
9294;SDS011;4686;44.496;11.324;2023-07-13T14:47:27;11.67;;;5.60;;
9294;SDS011;4686;44.496;11.324;2023-07-13T14:49:55;8.77;;;5.60;;
9294;SDS011;4686;44.496;11.324;2023-07-13T14:52:22;7.63;;;5.63;;
9294;SDS011;4686;44.496;11.324;2023-07-13T14:54:51;11.57;;;6.27;;
9294;SDS011;4686;44.496;11.324;2023-07-13T14:57:19;7.70;;;5.67;;
9294;SDS011;4686;44.496;11.324;2023-07-13T14:59:46;14.13;;;5.97;;
9294;SDS011;4686;44.496;11.324;2023-07-13T15:02:15;9.50;;;5.80;;
9294;SDS011;4686;44.496;11.324;2023-07-13T15:04:44;10.10;;;6.23;;